createdAt,value
2023-02-14T00:00:42.305Z,0.00
2023-02-14T00:01:42.333Z,0.00
2023-02-14T00:02:42.410Z,0.00
2023-02-14T00:03:42.378Z,0.00
2023-02-14T00:04:42.453Z,0.00
2023-02-14T00:05:42.427Z,0.00
2023-02-14T00:06:42.447Z,0.00
2023-02-14T00:07:42.468Z,0.00
2023-02-14T00:08:42.490Z,0.00
2023-02-14T00:09:42.540Z,0.00
2023-02-14T00:10:42.536Z,0.00
2023-02-14T00:11:42.563Z,0.00
2023-02-14T00:12:42.582Z,0.00
2023-02-14T00:13:42.608Z,0.00
2023-02-14T00:14:42.628Z,0.00
2023-02-14T00:15:42.752Z,0.00
2023-02-14T00:16:42.674Z,0.00
2023-02-14T00:17:42.699Z,0.00
2023-02-14T00:18:42.721Z,0.00
2023-02-14T00:19:42.746Z,0.00
2023-02-14T00:20:42.769Z,0.00
2023-02-14T00:21:42.789Z,0.00
2023-02-14T00:22:42.818Z,0.00
2023-02-14T00:23:42.835Z,0.00
2023-02-14T00:24:42.857Z,0.00
2023-02-14T00:25:42.937Z,0.00
2023-02-14T00:26:42.906Z,0.00
2023-02-14T00:27:42.944Z,0.00
2023-02-14T00:28:42.949Z,0.00
2023-02-14T00:29:42.974Z,0.00
2023-02-14T00:30:43.033Z,0.00
2023-02-14T00:31:43.075Z,0.00
2023-02-14T00:32:43.049Z,0.00
2023-02-14T00:33:43.065Z,0.00
2023-02-14T00:34:43.088Z,0.00
2023-02-14T00:35:43.111Z,0.00
2023-02-14T00:36:43.134Z,0.00
2023-02-14T00:37:43.157Z,0.00
2023-02-14T00:38:43.179Z,0.00
2023-02-14T00:39:43.212Z,0.00
2023-02-14T00:40:43.237Z,0.00
2023-02-14T00:41:43.271Z,0.00
2023-02-14T00:42:43.271Z,0.00
2023-02-14T00:43:43.300Z,0.00
2023-02-14T00:44:43.315Z,0.00
2023-02-14T00:45:43.413Z,0.00
2023-02-14T00:46:43.364Z,0.00
2023-02-14T00:47:43.385Z,0.00
2023-02-14T00:48:43.408Z,0.00
2023-02-14T00:49:43.437Z,0.00
2023-02-14T00:50:43.454Z,0.00
2023-02-14T00:51:43.476Z,0.00
2023-02-14T00:52:43.508Z,0.00
2023-02-14T00:53:43.523Z,0.00
2023-02-14T00:54:43.547Z,0.00
2023-02-14T00:55:43.569Z,0.00
2023-02-14T00:56:43.590Z,0.00
2023-02-14T00:57:43.642Z,0.00
2023-02-14T00:58:43.641Z,0.00
2023-02-14T00:59:43.656Z,0.00
2023-02-14T01:00:43.705Z,0.00
2023-02-14T01:01:43.702Z,0.00
2023-02-14T01:02:43.786Z,0.00
2023-02-14T01:03:43.748Z,0.00
2023-02-14T01:04:43.778Z,0.00
2023-02-14T01:05:43.797Z,0.00
2023-02-14T01:06:43.818Z,0.00
2023-02-14T01:07:43.841Z,0.00
2023-02-14T01:08:43.866Z,0.00
2023-02-14T01:09:43.888Z,0.00
2023-02-14T01:10:43.914Z,0.00
2023-02-14T01:11:43.934Z,0.00
2023-02-14T01:12:43.957Z,0.00
2023-02-14T01:13:44.000Z,0.00
2023-02-14T01:14:44.006Z,0.00
2023-02-14T01:15:44.023Z,0.00
2023-02-14T01:16:44.182Z,0.00
2023-02-14T01:17:44.070Z,0.00
2023-02-14T01:18:44.096Z,0.00
2023-02-14T01:19:44.264Z,0.00
2023-02-14T01:20:44.138Z,0.00
2023-02-14T01:21:44.161Z,0.00
2023-02-14T01:22:44.185Z,0.00
2023-02-14T01:23:44.205Z,0.00
2023-02-14T01:24:44.229Z,0.00
2023-02-14T01:25:44.249Z,0.00
2023-02-14T01:26:44.280Z,0.00
2023-02-14T01:27:44.296Z,0.00
2023-02-14T01:28:44.320Z,0.00
2023-02-14T01:29:44.371Z,0.00
2023-02-14T01:30:44.397Z,0.00
2023-02-14T01:31:44.492Z,0.00
2023-02-14T01:32:44.421Z,0.00
2023-02-14T01:33:44.434Z,0.00
2023-02-14T01:34:44.458Z,0.00
2023-02-14T01:35:44.476Z,0.00
2023-02-14T01:36:44.505Z,0.00
2023-02-14T01:37:44.524Z,0.00
2023-02-14T01:38:44.549Z,0.00
2023-02-14T01:39:44.570Z,0.00
2023-02-14T01:40:44.595Z,0.00
2023-02-14T01:41:44.638Z,0.00
2023-02-14T01:42:44.643Z,0.00
2023-02-14T01:43:44.662Z,0.00
2023-02-14T01:44:44.688Z,0.00
2023-02-14T01:45:44.770Z,0.00
2023-02-14T01:46:44.747Z,0.00
2023-02-14T01:47:44.764Z,0.00
2023-02-14T01:48:44.779Z,0.00
2023-02-14T01:49:44.800Z,0.00
2023-02-14T01:50:44.825Z,0.00
2023-02-14T01:51:44.857Z,0.00
2023-02-14T01:52:44.870Z,0.00
2023-02-14T01:53:44.891Z,0.00
2023-02-14T01:54:44.916Z,0.00
2023-02-14T01:55:44.938Z,0.00
2023-02-14T01:56:44.976Z,0.00
2023-02-14T01:57:44.986Z,0.00
2023-02-14T01:58:45.011Z,0.00
2023-02-14T01:59:45.027Z,0.00
2023-02-14T02:00:45.136Z,0.00
2023-02-14T02:01:45.119Z,0.00
2023-02-14T02:02:45.096Z,0.00
2023-02-14T02:03:45.127Z,0.00
2023-02-14T02:04:45.145Z,0.00
2023-02-14T02:05:45.167Z,0.00
2023-02-14T02:06:45.190Z,0.00
2023-02-14T02:07:45.210Z,0.00
2023-02-14T02:08:45.235Z,0.00
2023-02-14T02:09:45.255Z,0.00
2023-02-14T02:10:45.284Z,0.00
2023-02-14T02:11:45.300Z,0.00
2023-02-14T02:12:45.325Z,0.00
2023-02-14T02:13:45.349Z,0.00
2023-02-14T02:14:45.377Z,0.00
2023-02-14T02:15:45.390Z,0.00
2023-02-14T02:16:45.427Z,0.00
2023-02-14T02:17:45.462Z,0.00
2023-02-14T02:18:45.459Z,0.00
2023-02-14T02:19:45.482Z,0.00
2023-02-14T02:20:45.505Z,0.00
2023-02-14T02:21:45.527Z,0.00
2023-02-14T02:22:45.551Z,0.00
2023-02-14T02:23:45.575Z,0.00
2023-02-14T02:24:45.596Z,0.00
2023-02-14T02:25:45.618Z,0.00
2023-02-14T02:26:45.642Z,0.00
2023-02-14T02:27:45.661Z,0.00
2023-02-14T02:28:45.687Z,0.00
2023-02-14T02:29:45.710Z,0.00
2023-02-14T02:30:45.872Z,0.00
2023-02-14T02:31:45.948Z,0.00
2023-02-14T02:32:45.781Z,0.00
2023-02-14T02:33:45.819Z,0.00
2023-02-14T02:34:45.822Z,0.00
2023-02-14T02:35:45.841Z,0.00
2023-02-14T02:36:45.868Z,0.00
2023-02-14T02:37:45.888Z,0.00
2023-02-14T02:38:45.912Z,0.00
2023-02-14T02:39:45.935Z,0.00
2023-02-14T02:40:45.956Z,0.00
2023-02-14T02:41:45.984Z,0.00
2023-02-14T02:42:46.008Z,0.00
2023-02-14T02:43:46.029Z,0.00
2023-02-14T02:44:46.049Z,0.00
2023-02-14T02:45:46.104Z,0.00
2023-02-14T02:46:46.095Z,0.00
2023-02-14T02:47:46.112Z,0.00
2023-02-14T02:48:46.137Z,0.00
2023-02-14T02:49:46.180Z,0.00
2023-02-14T02:50:46.185Z,0.00
2023-02-14T02:51:46.202Z,0.00
2023-02-14T02:52:46.226Z,0.00
2023-02-14T02:53:46.247Z,0.00
2023-02-14T02:54:46.272Z,0.00
2023-02-14T02:55:46.307Z,0.00
2023-02-14T02:56:46.315Z,0.00
2023-02-14T02:57:46.338Z,0.00
2023-02-14T02:58:46.361Z,0.00
2023-02-14T02:59:46.382Z,0.00
2023-02-14T03:00:46.407Z,0.00
2023-02-14T03:01:46.534Z,0.00
2023-02-14T03:02:46.452Z,0.00
2023-02-14T03:03:46.472Z,0.00
2023-02-14T03:04:46.565Z,0.00
2023-02-14T03:05:46.549Z,0.00
2023-02-14T03:06:46.541Z,0.00
2023-02-14T03:07:46.561Z,0.00
2023-02-14T03:08:46.589Z,0.00
2023-02-14T03:09:46.606Z,0.00
2023-02-14T03:10:46.632Z,0.00
2023-02-14T03:11:46.650Z,0.00
2023-02-14T03:12:46.675Z,0.00
2023-02-14T03:13:46.699Z,0.00
2023-02-14T03:14:46.728Z,0.00
2023-02-14T03:15:46.794Z,0.00
2023-02-14T03:16:46.766Z,0.00
2023-02-14T03:17:46.792Z,0.00
2023-02-14T03:18:46.816Z,0.00
2023-02-14T03:19:46.833Z,0.00
2023-02-14T03:20:46.856Z,0.00
2023-02-14T03:21:46.906Z,0.00
2023-02-14T03:22:46.901Z,0.00
2023-02-14T03:23:46.922Z,0.00
2023-02-14T03:24:46.951Z,0.00
2023-02-14T03:25:46.968Z,0.00
2023-02-14T03:26:46.992Z,0.00
2023-02-14T03:27:47.035Z,0.00
2023-02-14T03:28:47.036Z,0.00
2023-02-14T03:29:47.221Z,0.00
2023-02-14T03:30:47.214Z,0.00
2023-02-14T03:31:47.221Z,0.00
2023-02-14T03:32:47.133Z,0.00
2023-02-14T03:33:47.148Z,0.00
2023-02-14T03:34:47.172Z,0.00
2023-02-14T03:35:47.194Z,0.00
2023-02-14T03:36:47.217Z,0.00
2023-02-14T03:37:47.260Z,0.00
2023-02-14T03:38:47.264Z,0.00
2023-02-14T03:39:47.280Z,0.00
2023-02-14T03:40:47.307Z,0.00
2023-02-14T03:41:47.330Z,0.00
2023-02-14T03:42:47.352Z,0.00
2023-02-14T03:43:47.372Z,0.00
2023-02-14T03:44:47.476Z,0.00
2023-02-14T03:45:47.417Z,0.00
2023-02-14T03:46:47.507Z,0.00
2023-02-14T03:47:47.461Z,0.00
2023-02-14T03:48:47.486Z,0.00
2023-02-14T03:49:47.507Z,0.00
2023-02-14T03:50:47.535Z,0.00
2023-02-14T03:51:47.572Z,0.00
2023-02-14T03:52:47.575Z,0.00
2023-02-14T03:53:47.616Z,0.00
2023-02-14T03:54:47.623Z,0.00
2023-02-14T03:55:47.651Z,0.00
2023-02-14T03:56:47.669Z,0.00
2023-02-14T03:57:47.686Z,0.00
2023-02-14T03:58:47.710Z,0.00
2023-02-14T03:59:47.737Z,0.00
2023-02-14T04:00:47.755Z,0.00
2023-02-14T04:01:47.864Z,0.00
2023-02-14T04:02:47.804Z,0.00
2023-02-14T04:03:47.840Z,0.00
2023-02-14T04:04:47.843Z,0.00
2023-02-14T04:05:47.865Z,0.00
2023-02-14T04:06:47.892Z,0.00
2023-02-14T04:07:47.923Z,0.00
2023-02-14T04:08:47.939Z,0.00
2023-02-14T04:09:47.984Z,0.00
2023-02-14T04:10:47.979Z,0.00
2023-02-14T04:11:48.000Z,0.00
2023-02-14T04:12:48.028Z,0.00
2023-02-14T04:13:48.053Z,0.00
2023-02-14T04:14:48.068Z,0.00
2023-02-14T04:15:48.205Z,0.00
2023-02-14T04:16:48.113Z,0.00
2023-02-14T04:17:48.134Z,0.00
2023-02-14T04:18:48.164Z,0.00
2023-02-14T04:19:48.177Z,0.00
2023-02-14T04:20:48.201Z,0.00
2023-02-14T04:21:48.223Z,0.00
2023-02-14T04:22:48.252Z,0.00
2023-02-14T04:23:48.272Z,0.00
2023-02-14T04:24:48.295Z,0.00
2023-02-14T04:25:48.337Z,0.00
2023-02-14T04:26:48.336Z,0.00
2023-02-14T04:27:48.356Z,0.00
2023-02-14T04:28:48.380Z,0.00
2023-02-14T04:29:48.456Z,0.00
2023-02-14T04:30:48.505Z,0.00
2023-02-14T04:31:48.620Z,0.00
2023-02-14T04:32:48.470Z,0.00
2023-02-14T04:33:48.500Z,0.00
2023-02-14T04:34:48.516Z,0.00
2023-02-14T04:35:48.535Z,0.00
2023-02-14T04:36:48.558Z,0.00
2023-02-14T04:37:48.581Z,0.00
2023-02-14T04:38:48.604Z,0.00
2023-02-14T04:39:48.624Z,0.00
2023-02-14T04:40:48.650Z,0.00
2023-02-14T04:41:48.688Z,0.00
2023-02-14T04:42:48.695Z,0.00
2023-02-14T04:43:48.713Z,0.00
2023-02-14T04:44:48.737Z,0.00
2023-02-14T04:45:48.775Z,0.00
2023-02-14T04:46:48.872Z,0.00
2023-02-14T04:47:48.823Z,0.00
2023-02-14T04:48:48.830Z,0.00
2023-02-14T04:49:48.855Z,0.00
2023-02-14T04:50:48.872Z,0.00
2023-02-14T04:51:48.893Z,0.00
2023-02-14T04:52:48.916Z,0.00
2023-02-14T04:53:48.937Z,0.00
2023-02-14T04:54:48.962Z,0.00
2023-02-14T04:55:48.981Z,0.00
2023-02-14T04:56:49.009Z,0.00
2023-02-14T04:57:49.054Z,0.00
2023-02-14T04:58:49.056Z,0.00
2023-02-14T04:59:49.073Z,0.00
2023-02-14T05:00:49.136Z,0.00
2023-02-14T05:01:49.123Z,0.00
2023-02-14T05:02:49.138Z,0.00
2023-02-14T05:03:49.157Z,0.00
2023-02-14T05:04:49.892Z,0.00
2023-02-14T05:05:49.207Z,0.00
2023-02-14T05:06:49.225Z,0.00
2023-02-14T05:07:49.246Z,0.00
2023-02-14T05:08:49.278Z,0.00
2023-02-14T05:09:49.292Z,0.00
2023-02-14T05:10:49.316Z,0.00
2023-02-14T05:11:49.336Z,0.00
2023-02-14T05:12:49.363Z,0.00
2023-02-14T05:13:49.402Z,0.00
2023-02-14T05:14:49.405Z,0.00
2023-02-14T05:15:49.424Z,0.00
2023-02-14T05:16:49.446Z,0.00
2023-02-14T05:17:49.468Z,0.00
2023-02-14T05:18:49.644Z,0.00
2023-02-14T05:19:49.518Z,0.00
2023-02-14T05:20:49.533Z,0.00
2023-02-14T05:21:49.567Z,0.00
2023-02-14T05:22:49.579Z,0.00
2023-02-14T05:23:49.600Z,0.00
2023-02-14T05:24:49.620Z,0.00
2023-02-14T05:25:49.644Z,0.00
2023-02-14T05:26:49.691Z,0.00
2023-02-14T05:27:49.689Z,0.00
2023-02-14T05:28:49.710Z,0.00
2023-02-14T05:29:49.843Z,0.00
2023-02-14T05:30:49.817Z,0.00
2023-02-14T05:31:49.871Z,0.00
2023-02-14T05:32:49.799Z,0.00
2023-02-14T05:33:49.833Z,0.00
2023-02-14T05:34:49.841Z,0.00
2023-02-14T05:35:49.867Z,0.00
2023-02-14T05:36:49.886Z,0.00
2023-02-14T05:37:49.915Z,0.00
2023-02-14T05:38:49.932Z,0.00
2023-02-14T05:39:49.954Z,0.00
2023-02-14T05:40:49.973Z,0.00
2023-02-14T05:41:49.997Z,0.00
2023-02-14T05:42:50.024Z,0.00
2023-02-14T05:43:50.039Z,0.00
2023-02-14T05:44:50.062Z,0.00
2023-02-14T05:45:50.467Z,0.00
2023-02-14T05:46:50.108Z,0.00
2023-02-14T05:47:50.135Z,0.00
2023-02-14T05:48:50.160Z,0.00
2023-02-14T05:49:50.176Z,0.00
2023-02-14T05:50:50.198Z,0.00
2023-02-14T05:51:50.222Z,0.00
2023-02-14T05:52:50.240Z,0.00
2023-02-14T05:53:50.266Z,0.00
2023-02-14T05:54:50.286Z,0.00
2023-02-14T05:55:50.461Z,0.00
2023-02-14T05:56:50.337Z,0.00
2023-02-14T05:57:50.358Z,0.00
2023-02-14T05:58:50.377Z,0.00
2023-02-14T05:59:50.399Z,0.00
2023-02-14T06:00:50.422Z,0.00
2023-02-14T06:01:50.482Z,0.00
2023-02-14T06:02:50.464Z,0.00
2023-02-14T06:03:50.499Z,0.00
2023-02-14T06:04:50.598Z,0.00
2023-02-14T06:05:50.538Z,0.00
2023-02-14T06:06:50.552Z,0.00
2023-02-14T06:07:50.577Z,0.00
2023-02-14T06:08:50.603Z,0.00
2023-02-14T06:09:50.621Z,4.00
2023-02-14T06:10:50.643Z,4.00
2023-02-14T06:11:50.666Z,0.00
2023-02-14T06:12:50.688Z,4.00
2023-02-14T06:13:50.711Z,4.00
2023-02-14T06:14:50.730Z,4.00
2023-02-14T06:15:50.756Z,4.00
2023-02-14T06:16:50.883Z,8.00
2023-02-14T06:17:50.920Z,8.00
2023-02-14T06:18:50.818Z,8.00
2023-02-14T06:19:50.843Z,8.00
2023-02-14T06:20:50.862Z,12.00
2023-02-14T06:21:50.889Z,12.00
2023-02-14T06:22:50.910Z,16.00
2023-02-14T06:23:50.930Z,16.00
2023-02-14T06:24:50.951Z,24.00
2023-02-14T06:25:50.975Z,28.00
2023-02-14T06:26:50.999Z,28.00
2023-02-14T06:27:51.017Z,36.00
2023-02-14T06:28:51.040Z,44.00
2023-02-14T06:29:51.080Z,48.00
2023-02-14T06:30:51.176Z,56.00
2023-02-14T06:31:51.220Z,68.00
2023-02-14T06:32:51.125Z,76.00
2023-02-14T06:33:51.205Z,84.00
2023-02-14T06:34:51.177Z,96.00
2023-02-14T06:35:54.215Z,108.00
2023-02-14T06:36:51.207Z,124.00
2023-02-14T06:37:51.233Z,140.00
2023-02-14T06:38:51.253Z,156.00
2023-02-14T06:39:51.280Z,172.00
2023-02-14T06:40:51.300Z,192.00
2023-02-14T06:41:51.320Z,208.00
2023-02-14T06:42:51.340Z,228.00
2023-02-14T06:43:51.514Z,252.00
2023-02-14T06:44:51.384Z,272.00
2023-02-14T06:45:51.459Z,300.00
2023-02-14T06:46:51.430Z,324.00
2023-02-14T06:47:51.456Z,352.00
2023-02-14T06:48:51.472Z,384.00
2023-02-14T06:49:51.539Z,412.00
2023-02-14T06:50:51.515Z,440.00
2023-02-14T06:51:51.540Z,472.00
2023-02-14T06:52:51.659Z,504.00
2023-02-14T06:53:51.583Z,540.00
2023-02-14T06:54:51.605Z,576.00
2023-02-14T06:55:51.627Z,612.00
2023-02-14T06:56:51.650Z,652.00
2023-02-14T06:57:51.677Z,688.00
2023-02-14T06:58:51.702Z,728.00
2023-02-14T06:59:51.717Z,772.00
2023-02-14T07:00:51.735Z,808.00
2023-02-14T07:01:51.822Z,852.00
2023-02-14T07:02:51.809Z,896.00
2023-02-14T07:03:51.811Z,940.00
2023-02-14T07:04:51.835Z,984.00
2023-02-14T07:05:51.879Z,1032.00
2023-02-14T07:06:51.873Z,1076.00
2023-02-14T07:07:51.891Z,1120.00
2023-02-14T07:08:51.911Z,1168.00
2023-02-14T07:09:51.939Z,1216.00
2023-02-14T07:10:51.957Z,1260.00
2023-02-14T07:11:51.978Z,1304.00
2023-02-14T07:12:51.999Z,1356.00
2023-02-14T07:13:52.024Z,1400.00
2023-02-14T07:14:52.046Z,1448.00
2023-02-14T07:15:52.142Z,1492.00
2023-02-14T07:16:52.097Z,1536.00
2023-02-14T07:17:52.115Z,1584.00
2023-02-14T07:18:52.164Z,1628.00
2023-02-14T07:19:52.171Z,1664.00
2023-02-14T07:20:52.182Z,1704.00
2023-02-14T07:21:52.249Z,1748.00
2023-02-14T07:22:52.220Z,1792.00
2023-02-14T07:23:52.251Z,1832.00
2023-02-14T07:24:52.264Z,1872.00
2023-02-14T07:25:52.288Z,1904.00
2023-02-14T07:26:52.331Z,1952.00
2023-02-14T07:27:52.352Z,1988.00
2023-02-14T07:28:52.353Z,2020.00
2023-02-14T07:29:52.432Z,2060.00
2023-02-14T07:30:52.542Z,2100.00
2023-02-14T07:31:52.533Z,2136.00
2023-02-14T07:32:52.444Z,2172.00
2023-02-14T07:33:52.496Z,2208.00
2023-02-14T07:34:52.490Z,2240.00
2023-02-14T07:35:52.506Z,2276.00
2023-02-14T07:36:52.534Z,2304.00
2023-02-14T07:37:52.573Z,2336.00
2023-02-14T07:38:52.572Z,2364.00
2023-02-14T07:39:52.597Z,2392.00
2023-02-14T07:40:52.616Z,2420.00
2023-02-14T07:41:52.651Z,2452.00
2023-02-14T07:42:52.665Z,2480.00
2023-02-14T07:43:52.685Z,2512.00
2023-02-14T07:44:52.716Z,2540.00
2023-02-14T07:45:52.776Z,2572.00
2023-02-14T07:46:52.753Z,2600.00
2023-02-14T07:47:52.773Z,2628.00
2023-02-14T07:48:52.946Z,2656.00
2023-02-14T07:49:53.069Z,2688.00
2023-02-14T07:50:53.060Z,2712.00
2023-02-14T07:51:52.873Z,2736.00
2023-02-14T07:52:52.998Z,2752.00
2023-02-14T07:53:53.048Z,2784.00
2023-02-14T07:54:53.039Z,2812.00
2023-02-14T07:55:52.955Z,2832.00
2023-02-14T07:56:52.974Z,2856.00
2023-02-14T07:57:53.006Z,2880.00
2023-02-14T07:58:53.028Z,2900.00
2023-02-14T07:59:53.046Z,2920.00
2023-02-14T08:00:53.062Z,2940.00
2023-02-14T08:01:53.161Z,2956.00
2023-02-14T08:02:53.108Z,2976.00
2023-02-14T08:03:53.130Z,2988.00
2023-02-14T08:04:53.199Z,3000.00
2023-02-14T08:05:53.179Z,3016.00
2023-02-14T08:06:53.202Z,3036.00
2023-02-14T08:07:53.239Z,3044.00
2023-02-14T08:08:53.244Z,3068.00
2023-02-14T08:09:53.291Z,3084.00
2023-02-14T08:10:53.288Z,3100.00
2023-02-14T08:11:53.310Z,3116.00
2023-02-14T08:12:53.330Z,3132.00
2023-02-14T08:13:53.363Z,3156.00
2023-02-14T08:14:53.377Z,3176.00
2023-02-14T08:15:53.453Z,3192.00
2023-02-14T08:16:53.423Z,3216.00
2023-02-14T08:17:53.443Z,3228.00
2023-02-14T08:18:53.565Z,3248.00
2023-02-14T08:19:53.488Z,3264.00
2023-02-14T08:20:53.507Z,3284.00
2023-02-14T08:21:53.532Z,3296.00
2023-02-14T08:22:53.551Z,3304.00
2023-02-14T08:23:53.576Z,3328.00
2023-02-14T08:24:53.618Z,3332.00
2023-02-14T08:25:53.647Z,3348.00
2023-02-14T08:26:53.642Z,3356.00
2023-02-14T08:27:53.668Z,3360.00
2023-02-14T08:28:53.691Z,3372.00
2023-02-14T08:29:53.765Z,3384.00
2023-02-14T08:30:53.906Z,3392.00
2023-02-14T08:31:53.873Z,3412.00
2023-02-14T08:32:53.872Z,3416.00
2023-02-14T08:33:53.809Z,3428.00
2023-02-14T08:34:53.827Z,3444.00
2023-02-14T08:35:53.868Z,3452.00
2023-02-14T08:36:53.872Z,3452.00
2023-02-14T08:37:53.902Z,3472.00
2023-02-14T08:38:53.919Z,3480.00
2023-02-14T08:39:53.938Z,3472.00
2023-02-14T08:40:53.975Z,3492.00
2023-02-14T08:41:54.013Z,3500.00
2023-02-14T08:42:54.009Z,3500.00
2023-02-14T08:43:54.066Z,3516.00
2023-02-14T08:44:54.058Z,3520.00
2023-02-14T08:45:54.078Z,3532.00
2023-02-14T08:46:54.202Z,3528.00
2023-02-14T08:47:54.132Z,3544.00
2023-02-14T08:48:54.155Z,3548.00
2023-02-14T08:49:54.175Z,3552.00
2023-02-14T08:50:54.219Z,3552.00
2023-02-14T08:51:54.250Z,3556.00
2023-02-14T08:52:54.255Z,3556.00
2023-02-14T08:53:54.280Z,3564.00
2023-02-14T08:54:54.289Z,3560.00
2023-02-14T08:55:54.311Z,3556.00
2023-02-14T08:56:54.342Z,3552.00
2023-02-14T08:57:54.411Z,3544.00
2023-02-14T08:58:54.407Z,3536.00
2023-02-14T08:59:54.404Z,3536.00
2023-02-14T09:00:54.612Z,3536.00
2023-02-14T09:01:54.463Z,3524.00
2023-02-14T09:02:54.504Z,3528.00
2023-02-14T09:03:54.501Z,3524.00
2023-02-14T09:04:54.525Z,3512.00
2023-02-14T09:05:54.555Z,3516.00
2023-02-14T09:06:54.772Z,3524.00
2023-02-14T09:07:54.625Z,3516.00
2023-02-14T09:08:54.633Z,3520.00
2023-02-14T09:09:54.667Z,3528.00
2023-02-14T09:10:54.662Z,3544.00
2023-02-14T09:11:54.702Z,3548.00
2023-02-14T09:12:54.705Z,3556.00
2023-02-14T09:13:54.825Z,3560.00
2023-02-14T09:14:54.753Z,3568.00
2023-02-14T09:15:54.936Z,3564.00
2023-02-14T09:16:54.836Z,3556.00
2023-02-14T09:17:54.877Z,3560.00
2023-02-14T09:18:54.985Z,3548.00
2023-02-14T09:19:54.873Z,3548.00
2023-02-14T09:20:54.932Z,3552.00
2023-02-14T09:21:54.919Z,3548.00
2023-02-14T09:22:54.944Z,3556.00
2023-02-14T09:23:54.974Z,3552.00
2023-02-14T09:24:54.995Z,3552.00
2023-02-14T09:25:55.015Z,3544.00
2023-02-14T09:26:55.039Z,3536.00
2023-02-14T09:27:55.067Z,3536.00
2023-02-14T09:28:55.092Z,3540.00
2023-02-14T09:29:55.181Z,3524.00
2023-02-14T09:30:55.185Z,3524.00
2023-02-14T09:31:55.274Z,3516.00
2023-02-14T09:32:55.181Z,3516.00
2023-02-14T09:33:55.206Z,3516.00
2023-02-14T09:34:55.228Z,3504.00
2023-02-14T09:35:55.251Z,3508.00
2023-02-14T09:36:55.278Z,3496.00
2023-02-14T09:37:55.300Z,3492.00
2023-02-14T09:38:55.328Z,3488.00
2023-02-14T09:39:55.347Z,3484.00
2023-02-14T09:40:55.380Z,3492.00
2023-02-14T09:41:55.394Z,3484.00
2023-02-14T09:42:55.419Z,3484.00
2023-02-14T09:43:55.444Z,3484.00
2023-02-14T09:44:55.467Z,3476.00
2023-02-14T09:45:55.690Z,3472.00
2023-02-14T09:46:55.516Z,3468.00
2023-02-14T09:47:55.538Z,3464.00
2023-02-14T09:48:55.581Z,3460.00
2023-02-14T09:49:55.671Z,3460.00
2023-02-14T09:50:55.619Z,3448.00
2023-02-14T09:51:55.643Z,3448.00
2023-02-14T09:52:55.659Z,3448.00
2023-02-14T09:53:55.700Z,3436.00
2023-02-14T09:54:55.711Z,3436.00
2023-02-14T09:55:55.735Z,3428.00
2023-02-14T09:56:55.759Z,3420.00
2023-02-14T09:57:55.779Z,3420.00
2023-02-14T09:58:55.805Z,3424.00
2023-02-14T09:59:55.829Z,3436.00
2023-02-14T10:00:55.884Z,3424.00
2023-02-14T10:01:55.951Z,3428.00
2023-02-14T10:02:55.903Z,3428.00
2023-02-14T10:03:55.926Z,3428.00
2023-02-14T10:04:55.964Z,3424.00
2023-02-14T10:05:55.976Z,3428.00
2023-02-14T10:06:56.001Z,3436.00
2023-02-14T10:07:56.037Z,3432.00
2023-02-14T10:08:56.056Z,3428.00
2023-02-14T10:09:56.089Z,3424.00
2023-02-14T10:10:56.097Z,3416.00
2023-02-14T10:11:56.120Z,3416.00
2023-02-14T10:12:56.146Z,3412.00
2023-02-14T10:13:56.168Z,3404.00
2023-02-14T10:14:56.201Z,3400.00
2023-02-14T10:15:56.217Z,3388.00
2023-02-14T10:16:56.308Z,3388.00
2023-02-14T10:17:56.304Z,3392.00
2023-02-14T10:18:56.291Z,3388.00
2023-02-14T10:19:56.318Z,3380.00
2023-02-14T10:20:56.356Z,3372.00
2023-02-14T10:21:56.364Z,3364.00
2023-02-14T10:22:56.395Z,3364.00
2023-02-14T10:23:56.414Z,3352.00
2023-02-14T10:24:56.442Z,3344.00
2023-02-14T10:25:56.490Z,3340.00
2023-02-14T10:26:56.492Z,3336.00
2023-02-14T10:27:56.533Z,3332.00
2023-02-14T10:28:56.539Z,3328.00
2023-02-14T10:29:56.608Z,3320.00
2023-02-14T10:30:56.642Z,3320.00
2023-02-14T10:31:56.683Z,3324.00
2023-02-14T10:32:56.667Z,3316.00
2023-02-14T10:33:57.800Z,3316.00
2023-02-14T10:34:56.690Z,3312.00
2023-02-14T10:35:56.710Z,3308.00
2023-02-14T10:36:56.737Z,3300.00
2023-02-14T10:37:56.774Z,3296.00
2023-02-14T10:38:56.797Z,3292.00
2023-02-14T10:39:56.811Z,3276.00
2023-02-14T10:40:56.934Z,3276.00
2023-02-14T10:41:57.059Z,3280.00
2023-02-14T10:42:56.887Z,3260.00
2023-02-14T10:43:56.940Z,3264.00
2023-02-14T10:44:56.951Z,3256.00
2023-02-14T10:45:57.031Z,3256.00
2023-02-14T10:46:56.986Z,3244.00
2023-02-14T10:47:57.021Z,3244.00
2023-02-14T10:48:57.038Z,3232.00
2023-02-14T10:49:57.057Z,3236.00
2023-02-14T10:50:57.087Z,3232.00
2023-02-14T10:51:57.116Z,3236.00
2023-02-14T10:52:57.134Z,3232.00
2023-02-14T10:53:57.164Z,3228.00
2023-02-14T10:54:57.187Z,3228.00
2023-02-14T10:55:57.222Z,3224.00
2023-02-14T10:56:58.572Z,3216.00
2023-02-14T10:57:57.258Z,3224.00
2023-02-14T10:58:57.298Z,3224.00
2023-02-14T10:59:57.328Z,3224.00
2023-02-14T11:00:57.483Z,3224.00
2023-02-14T11:01:57.357Z,3224.00
2023-02-14T11:02:57.390Z,3216.00
2023-02-14T11:03:57.462Z,3216.00
2023-02-14T11:04:57.437Z,3208.00
2023-02-14T11:05:57.470Z,3204.00
2023-02-14T11:06:57.487Z,3196.00
2023-02-14T11:07:57.509Z,3200.00
2023-02-14T11:08:57.633Z,3196.00
2023-02-14T11:09:57.563Z,3188.00
2023-02-14T11:10:57.588Z,3176.00
2023-02-14T11:11:57.611Z,3176.00
2023-02-14T11:12:57.640Z,3176.00
2023-02-14T11:13:57.667Z,3164.00
2023-02-14T11:14:57.690Z,3164.00
2023-02-14T11:15:58.385Z,3160.00
2023-02-14T11:16:57.837Z,3156.00
2023-02-14T11:17:57.762Z,3148.00
2023-02-14T11:18:57.791Z,3148.00
2023-02-14T11:19:57.816Z,3152.00
2023-02-14T11:20:57.836Z,3144.00
2023-02-14T11:21:57.863Z,3148.00
2023-02-14T11:22:57.897Z,3152.00
2023-02-14T11:23:57.915Z,3140.00
2023-02-14T11:24:57.941Z,3132.00
2023-02-14T11:25:58.228Z,3136.00
2023-02-14T11:26:57.995Z,3132.00
2023-02-14T11:27:58.011Z,3128.00
2023-02-14T11:28:58.075Z,3132.00
2023-02-14T11:29:58.091Z,3132.00
2023-02-14T11:30:58.309Z,3124.00
2023-02-14T11:31:58.169Z,3128.00
2023-02-14T11:32:58.145Z,3124.00
2023-02-14T11:33:58.165Z,3128.00
2023-02-14T11:34:58.192Z,3120.00
2023-02-14T11:35:58.334Z,3124.00
2023-02-14T11:36:58.259Z,3124.00
2023-02-14T11:37:58.266Z,3120.00
2023-02-14T11:38:58.293Z,3124.00
2023-02-14T11:39:58.320Z,3124.00
2023-02-14T11:40:58.869Z,3132.00
2023-02-14T11:41:58.370Z,3128.00
2023-02-14T11:43:13.517Z,3124.00
2023-02-14T11:43:58.417Z,3128.00
2023-02-14T11:44:58.457Z,3112.00
2023-02-14T11:45:58.494Z,3116.00
2023-02-14T11:46:58.500Z,3112.00
2023-02-14T11:47:58.541Z,3108.00
2023-02-14T11:48:58.550Z,3108.00
2023-02-14T11:49:58.583Z,3104.00
2023-02-14T11:50:59.029Z,3104.00
2023-02-14T11:51:58.623Z,3104.00
2023-02-14T11:52:58.650Z,3096.00
2023-02-14T11:53:58.676Z,3096.00
2023-02-14T11:54:58.702Z,3096.00
2023-02-14T11:55:58.726Z,3092.00
2023-02-14T11:56:58.754Z,3096.00
2023-02-14T11:57:58.792Z,3092.00
2023-02-14T11:58:58.810Z,3088.00
2023-02-14T11:59:58.829Z,3096.00
2023-02-14T12:00:59.211Z,3092.00
2023-02-14T12:01:58.881Z,3088.00
2023-02-14T12:02:58.912Z,3096.00
2023-02-14T12:03:58.974Z,3096.00
2023-02-14T12:04:58.968Z,3092.00
2023-02-14T12:05:58.987Z,3096.00
2023-02-14T12:06:59.014Z,3084.00
2023-02-14T12:07:59.036Z,3080.00
2023-02-14T12:08:59.063Z,3072.00
2023-02-14T12:10:00.261Z,3072.00
2023-02-14T12:10:59.429Z,3068.00
2023-02-14T12:11:59.140Z,3064.00
2023-02-14T12:12:59.167Z,3068.00
2023-02-14T12:13:59.191Z,3072.00
2023-02-14T12:14:59.221Z,3068.00
2023-02-14T12:15:59.305Z,3064.00
2023-02-14T12:16:59.271Z,3064.00
2023-02-14T12:17:59.323Z,3060.00
2023-02-14T12:18:59.327Z,3064.00
2023-02-14T12:19:59.383Z,3060.00
2023-02-14T12:20:59.841Z,3064.00
2023-02-14T12:21:59.397Z,3064.00
2023-02-14T12:22:59.429Z,3064.00
2023-02-14T12:23:59.461Z,3064.00
2023-02-14T12:24:59.477Z,3064.00
2023-02-14T12:25:59.504Z,3060.00
2023-02-14T12:26:59.530Z,3056.00
2023-02-14T12:27:59.553Z,3064.00
2023-02-14T12:28:59.579Z,3052.00
2023-02-14T12:29:59.649Z,3056.00
2023-02-14T12:30:59.937Z,3064.00
2023-02-14T12:31:59.798Z,3060.00
2023-02-14T12:32:59.686Z,3052.00
2023-02-14T12:33:59.704Z,3052.00
2023-02-14T12:34:59.733Z,3060.00
2023-02-14T12:35:59.882Z,3048.00
2023-02-14T12:36:59.802Z,3048.00
2023-02-14T12:38:04.703Z,3052.00
2023-02-14T12:38:59.836Z,3052.00
2023-02-14T12:39:59.864Z,3052.00
2023-02-14T12:41:00.233Z,3048.00
2023-02-14T12:41:59.922Z,3052.00
2023-02-14T12:43:00.140Z,3048.00